sensor_id;sensor_type;location;lat;lon;timestamp;temperature;humidity
70928;SHT31;58587;53.034;18.576;2024-03-22T00:00:19;8.46;93.43
70928;SHT31;58587;53.034;18.576;2024-03-22T00:02:44;8.47;93.42
70928;SHT31;58587;53.034;18.576;2024-03-22T00:05:09;8.46;93.33
70928;SHT31;58587;53.034;18.576;2024-03-22T00:07:35;8.42;93.35
70928;SHT31;58587;53.034;18.576;2024-03-22T00:10:02;8.43;93.54
70928;SHT31;58587;53.034;18.576;2024-03-22T00:12:30;8.39;93.67
70928;SHT31;58587;53.034;18.576;2024-03-22T00:14:55;8.42;93.68
70928;SHT31;58587;53.034;18.576;2024-03-22T00:17:21;8.37;93.94
70928;SHT31;58587;53.034;18.576;2024-03-22T00:19:46;8.29;94.14
70928;SHT31;58587;53.034;18.576;2024-03-22T00:22:12;8.30;94.21
70928;SHT31;58587;53.034;18.576;2024-03-22T00:24:37;8.32;94.23
70928;SHT31;58587;53.034;18.576;2024-03-22T00:27:02;8.26;94.20
70928;SHT31;58587;53.034;18.576;2024-03-22T00:29:28;8.28;94.60
70928;SHT31;58587;53.034;18.576;2024-03-22T00:31:53;8.28;94.68
70928;SHT31;58587;53.034;18.576;2024-03-22T00:34:18;8.30;94.63
70928;SHT31;58587;53.034;18.576;2024-03-22T00:36:45;8.26;94.59
70928;SHT31;58587;53.034;18.576;2024-03-22T00:39:11;8.29;94.61
70928;SHT31;58587;53.034;18.576;2024-03-22T00:41:36;8.28;94.58
70928;SHT31;58587;53.034;18.576;2024-03-22T00:44:01;8.32;94.49
70928;SHT31;58587;53.034;18.576;2024-03-22T00:46:27;8.28;94.61
70928;SHT31;58587;53.034;18.576;2024-03-22T00:48:52;8.26;94.57
70928;SHT31;58587;53.034;18.576;2024-03-22T00:51:17;8.26;94.56
70928;SHT31;58587;53.034;18.576;2024-03-22T00:53:43;8.28;94.36
70928;SHT31;58587;53.034;18.576;2024-03-22T00:56:08;8.23;94.48
70928;SHT31;58587;53.034;18.576;2024-03-22T00:58:33;8.25;94.49
70928;SHT31;58587;53.034;18.576;2024-03-22T01:00:59;8.19;94.34
70928;SHT31;58587;53.034;18.576;2024-03-22T01:03:24;8.13;94.55
70928;SHT31;58587;53.034;18.576;2024-03-22T01:05:50;8.13;94.51
70928;SHT31;58587;53.034;18.576;2024-03-22T01:08:15;8.10;94.49
70928;SHT31;58587;53.034;18.576;2024-03-22T01:10:41;8.09;94.50
70928;SHT31;58587;53.034;18.576;2024-03-22T01:13:06;8.09;94.61
70928;SHT31;58587;53.034;18.576;2024-03-22T01:15:31;8.05;94.67
70928;SHT31;58587;53.034;18.576;2024-03-22T01:17:57;8.06;94.71
70928;SHT31;58587;53.034;18.576;2024-03-22T01:20:22;8.06;94.61
70928;SHT31;58587;53.034;18.576;2024-03-22T01:22:48;8.06;94.52
70928;SHT31;58587;53.034;18.576;2024-03-22T01:25:14;8.02;94.30
70928;SHT31;58587;53.034;18.576;2024-03-22T01:27:39;8.06;94.27
70928;SHT31;58587;53.034;18.576;2024-03-22T01:30:05;7.98;94.44
70928;SHT31;58587;53.034;18.576;2024-03-22T01:32:31;7.92;94.66
70928;SHT31;58587;53.034;18.576;2024-03-22T01:34:57;7.93;94.75
70928;SHT31;58587;53.034;18.576;2024-03-22T01:37:22;7.93;94.75
70928;SHT31;58587;53.034;18.576;2024-03-22T01:39:48;7.92;94.88
70928;SHT31;58587;53.034;18.576;2024-03-22T01:42:13;7.85;94.84
70928;SHT31;58587;53.034;18.576;2024-03-22T01:44:38;7.88;95.04
70928;SHT31;58587;53.034;18.576;2024-03-22T01:47:04;7.85;94.94
70928;SHT31;58587;53.034;18.576;2024-03-22T01:49:30;7.85;95.10
70928;SHT31;58587;53.034;18.576;2024-03-22T01:51:55;7.82;94.95
70928;SHT31;58587;53.034;18.576;2024-03-22T01:54:21;7.77;94.80
70928;SHT31;58587;53.034;18.576;2024-03-22T01:56:47;7.78;95.07
70928;SHT31;58587;53.034;18.576;2024-03-22T01:59:12;7.77;95.10
70928;SHT31;58587;53.034;18.576;2024-03-22T02:01:38;7.77;95.06
70928;SHT31;58587;53.034;18.576;2024-03-22T02:04:04;7.72;94.94
70928;SHT31;58587;53.034;18.576;2024-03-22T02:06:30;7.74;95.07
70928;SHT31;58587;53.034;18.576;2024-03-22T02:08:57;7.71;95.07
70928;SHT31;58587;53.034;18.576;2024-03-22T02:11:22;7.74;95.21
70928;SHT31;58587;53.034;18.576;2024-03-22T02:13:48;7.71;95.13
70928;SHT31;58587;53.034;18.576;2024-03-22T02:16:13;7.75;94.97
70928;SHT31;58587;53.034;18.576;2024-03-22T02:18:38;7.71;94.97
70928;SHT31;58587;53.034;18.576;2024-03-22T02:21:04;7.72;94.97
70928;SHT31;58587;53.034;18.576;2024-03-22T02:23:36;7.71;94.61
70928;SHT31;58587;53.034;18.576;2024-03-22T02:26:03;7.62;94.50
70928;SHT31;58587;53.034;18.576;2024-03-22T02:28:30;7.62;94.78
70928;SHT31;58587;53.034;18.576;2024-03-22T02:30:55;7.62;94.60
70928;SHT31;58587;53.034;18.576;2024-03-22T02:33:21;7.58;94.69
70928;SHT31;58587;53.034;18.576;2024-03-22T02:35:47;7.62;94.91
70928;SHT31;58587;53.034;18.576;2024-03-22T02:38:12;7.59;94.81
70928;SHT31;58587;53.034;18.576;2024-03-22T02:40:38;7.55;94.46
70928;SHT31;58587;53.034;18.576;2024-03-22T02:43:03;7.54;94.45
70928;SHT31;58587;53.034;18.576;2024-03-22T02:45:30;7.54;94.36
70928;SHT31;58587;53.034;18.576;2024-03-22T02:47:56;7.57;94.50
70928;SHT31;58587;53.034;18.576;2024-03-22T02:50:21;7.46;94.48
70928;SHT31;58587;53.034;18.576;2024-03-22T02:52:48;7.46;94.47
70928;SHT31;58587;53.034;18.576;2024-03-22T02:55:13;7.46;94.41
70928;SHT31;58587;53.034;18.576;2024-03-22T02:57:39;7.46;94.41
70928;SHT31;58587;53.034;18.576;2024-03-22T03:00:05;7.41;94.50
70928;SHT31;58587;53.034;18.576;2024-03-22T03:02:30;7.44;94.57
70928;SHT31;58587;53.034;18.576;2024-03-22T03:04:55;7.43;94.65
70928;SHT31;58587;53.034;18.576;2024-03-22T03:07:23;7.40;94.48
70928;SHT31;58587;53.034;18.576;2024-03-22T03:09:49;7.38;94.54
70928;SHT31;58587;53.034;18.576;2024-03-22T03:12:14;7.40;94.39
70928;SHT31;58587;53.034;18.576;2024-03-22T03:14:39;7.40;94.37
70928;SHT31;58587;53.034;18.576;2024-03-22T03:17:05;7.34;94.40
70928;SHT31;58587;53.034;18.576;2024-03-22T03:19:30;7.34;94.33
70928;SHT31;58587;53.034;18.576;2024-03-22T03:21:56;7.38;94.51
70928;SHT31;58587;53.034;18.576;2024-03-22T03:24:21;7.35;94.63
70928;SHT31;58587;53.034;18.576;2024-03-22T03:26:46;7.35;94.64
70928;SHT31;58587;53.034;18.576;2024-03-22T03:29:12;7.32;94.69
70928;SHT31;58587;53.034;18.576;2024-03-22T03:31:37;7.30;94.56
70928;SHT31;58587;53.034;18.576;2024-03-22T03:34:02;7.26;94.79
70928;SHT31;58587;53.034;18.576;2024-03-22T03:36:28;7.28;94.60
70928;SHT31;58587;53.034;18.576;2024-03-22T03:38:53;7.27;94.69
70928;SHT31;58587;53.034;18.576;2024-03-22T03:41:19;7.31;94.80
70928;SHT31;58587;53.034;18.576;2024-03-22T03:43:44;7.28;94.45
70928;SHT31;58587;53.034;18.576;2024-03-22T03:46:09;7.24;94.45
70928;SHT31;58587;53.034;18.576;2024-03-22T03:48:34;7.27;94.61
70928;SHT31;58587;53.034;18.576;2024-03-22T03:51:00;7.24;94.61
70928;SHT31;58587;53.034;18.576;2024-03-22T03:53:29;7.18;94.73
70928;SHT31;58587;53.034;18.576;2024-03-22T03:55:54;7.18;94.68
70928;SHT31;58587;53.034;18.576;2024-03-22T03:58:19;7.21;94.61
70928;SHT31;58587;53.034;18.576;2024-03-22T04:00:45;7.14;94.54
70928;SHT31;58587;53.034;18.576;2024-03-22T04:03:10;7.18;94.70
70928;SHT31;58587;53.034;18.576;2024-03-22T04:05:35;7.16;94.39
70928;SHT31;58587;53.034;18.576;2024-03-22T04:08:01;7.17;94.47
70928;SHT31;58587;53.034;18.576;2024-03-22T04:10:26;7.16;94.54
70928;SHT31;58587;53.034;18.576;2024-03-22T04:12:51;7.17;94.47
70928;SHT31;58587;53.034;18.576;2024-03-22T04:15:17;7.16;94.67
70928;SHT31;58587;53.034;18.576;2024-03-22T04:17:42;7.13;94.67
70928;SHT31;58587;53.034;18.576;2024-03-22T04:20:08;7.17;94.56
70928;SHT31;58587;53.034;18.576;2024-03-22T04:22:34;7.14;94.79
70928;SHT31;58587;53.034;18.576;2024-03-22T04:24:59;7.13;94.64
70928;SHT31;58587;53.034;18.576;2024-03-22T04:27:25;7.17;94.89
70928;SHT31;58587;53.034;18.576;2024-03-22T04:29:50;7.17;94.82
70928;SHT31;58587;53.034;18.576;2024-03-22T04:32:15;7.14;94.76
70928;SHT31;58587;53.034;18.576;2024-03-22T04:34:44;7.10;94.75
70928;SHT31;58587;53.034;18.576;2024-03-22T04:37:10;7.08;94.63
70928;SHT31;58587;53.034;18.576;2024-03-22T04:39:37;7.08;94.88
70928;SHT31;58587;53.034;18.576;2024-03-22T04:42:03;7.06;94.92
70928;SHT31;58587;53.034;18.576;2024-03-22T04:44:29;7.14;94.99
70928;SHT31;58587;53.034;18.576;2024-03-22T04:46:54;7.11;95.05
70928;SHT31;58587;53.034;18.576;2024-03-22T04:49:20;7.10;94.99
70928;SHT31;58587;53.034;18.576;2024-03-22T04:51:45;7.06;95.09
70928;SHT31;58587;53.034;18.576;2024-03-22T04:54:10;7.07;95.15
70928;SHT31;58587;53.034;18.576;2024-03-22T04:56:36;7.08;95.09
70928;SHT31;58587;53.034;18.576;2024-03-22T04:59:01;7.10;94.84
70928;SHT31;58587;53.034;18.576;2024-03-22T05:01:27;7.04;95.07
70928;SHT31;58587;53.034;18.576;2024-03-22T05:03:52;7.06;95.00
70928;SHT31;58587;53.034;18.576;2024-03-22T05:06:17;7.03;94.92
70928;SHT31;58587;53.034;18.576;2024-03-22T05:08:43;7.06;94.97
70928;SHT31;58587;53.034;18.576;2024-03-22T05:11:09;7.07;94.85
70928;SHT31;58587;53.034;18.576;2024-03-22T05:13:34;7.03;94.77
70928;SHT31;58587;53.034;18.576;2024-03-22T05:15:59;7.06;95.03
70928;SHT31;58587;53.034;18.576;2024-03-22T05:18:25;7.08;94.99
70928;SHT31;58587;53.034;18.576;2024-03-22T05:20:50;7.01;94.91
70928;SHT31;58587;53.034;18.576;2024-03-22T05:23:16;7.06;95.02
70928;SHT31;58587;53.034;18.576;2024-03-22T05:25:42;7.10;94.96
70928;SHT31;58587;53.034;18.576;2024-03-22T05:28:07;7.10;95.09
70928;SHT31;58587;53.034;18.576;2024-03-22T05:30:33;7.07;95.08
70928;SHT31;58587;53.034;18.576;2024-03-22T05:32:58;7.06;95.25
70928;SHT31;58587;53.034;18.576;2024-03-22T05:35:24;7.06;95.12
70928;SHT31;58587;53.034;18.576;2024-03-22T05:37:49;7.10;95.21
70928;SHT31;58587;53.034;18.576;2024-03-22T05:40:16;7.13;95.09
70928;SHT31;58587;53.034;18.576;2024-03-22T05:42:42;7.14;95.08
70928;SHT31;58587;53.034;18.576;2024-03-22T05:45:07;7.13;95.03
70928;SHT31;58587;53.034;18.576;2024-03-22T05:47:33;7.11;95.13
70928;SHT31;58587;53.034;18.576;2024-03-22T05:49:59;7.13;95.21
70928;SHT31;58587;53.034;18.576;2024-03-22T05:52:24;7.10;95.14
70928;SHT31;58587;53.034;18.576;2024-03-22T05:54:50;7.11;95.20
70928;SHT31;58587;53.034;18.576;2024-03-22T05:57:15;7.07;95.08
70928;SHT31;58587;53.034;18.576;2024-03-22T05:59:40;7.07;95.24
70928;SHT31;58587;53.034;18.576;2024-03-22T06:02:06;7.13;95.22
70928;SHT31;58587;53.034;18.576;2024-03-22T06:04:31;7.03;94.99
70928;SHT31;58587;53.034;18.576;2024-03-22T06:06:57;7.03;95.08
70928;SHT31;58587;53.034;18.576;2024-03-22T06:09:27;7.01;94.97
70928;SHT31;58587;53.034;18.576;2024-03-22T06:12:05;7.00;94.78
70928;SHT31;58587;53.034;18.576;2024-03-22T06:14:30;6.99;94.83
70928;SHT31;58587;53.034;18.576;2024-03-22T06:16:55;6.92;94.72
70928;SHT31;58587;53.034;18.576;2024-03-22T06:19:21;6.99;94.83
70928;SHT31;58587;53.034;18.576;2024-03-22T06:21:46;7.06;94.71
70928;SHT31;58587;53.034;18.576;2024-03-22T06:24:11;7.11;94.72
70928;SHT31;58587;53.034;18.576;2024-03-22T06:26:37;7.07;94.07
70928;SHT31;58587;53.034;18.576;2024-03-22T06:29:02;7.04;94.04
70928;SHT31;58587;53.034;18.576;2024-03-22T06:31:28;7.00;93.94
70928;SHT31;58587;53.034;18.576;2024-03-22T06:33:54;7.01;94.00
70928;SHT31;58587;53.034;18.576;2024-03-22T06:36:19;7.00;93.78
70928;SHT31;58587;53.034;18.576;2024-03-22T06:38:44;6.99;94.04
70928;SHT31;58587;53.034;18.576;2024-03-22T06:41:10;7.01;93.56
70928;SHT31;58587;53.034;18.576;2024-03-22T06:43:35;7.08;93.77
70928;SHT31;58587;53.034;18.576;2024-03-22T06:46:00;7.10;93.59
70928;SHT31;58587;53.034;18.576;2024-03-22T06:48:26;7.11;93.27
70928;SHT31;58587;53.034;18.576;2024-03-22T06:50:51;7.18;93.36
70928;SHT31;58587;53.034;18.576;2024-03-22T06:53:16;7.23;92.94
70928;SHT31;58587;53.034;18.576;2024-03-22T06:55:42;7.35;93.56
70928;SHT31;58587;53.034;18.576;2024-03-22T06:58:07;7.34;92.69
70928;SHT31;58587;53.034;18.576;2024-03-22T07:00:32;7.43;93.39
70928;SHT31;58587;53.034;18.576;2024-03-22T07:03:01;7.47;92.88
70928;SHT31;58587;53.034;18.576;2024-03-22T07:05:27;7.44;92.47
70928;SHT31;58587;53.034;18.576;2024-03-22T07:07:53;7.52;92.74
70928;SHT31;58587;53.034;18.576;2024-03-22T07:10:21;7.57;92.58
70928;SHT31;58587;53.034;18.576;2024-03-22T07:12:47;7.51;91.54
70928;SHT31;58587;53.034;18.576;2024-03-22T07:15:13;7.46;91.16
70928;SHT31;58587;53.034;18.576;2024-03-22T07:17:38;7.47;91.72
70928;SHT31;58587;53.034;18.576;2024-03-22T07:20:04;7.46;91.46
70928;SHT31;58587;53.034;18.576;2024-03-22T07:22:30;7.38;90.80
70928;SHT31;58587;53.034;18.576;2024-03-22T07:24:56;7.24;90.92
70928;SHT31;58587;53.034;18.576;2024-03-22T07:27:21;7.24;91.49
70928;SHT31;58587;53.034;18.576;2024-03-22T07:29:46;7.27;91.53
70928;SHT31;58587;53.034;18.576;2024-03-22T07:32:12;7.28;91.96
70928;SHT31;58587;53.034;18.576;2024-03-22T07:34:37;7.31;91.70
70928;SHT31;58587;53.034;18.576;2024-03-22T07:37:02;7.26;91.60
70928;SHT31;58587;53.034;18.576;2024-03-22T07:39:29;7.21;91.51
70928;SHT31;58587;53.034;18.576;2024-03-22T07:41:54;7.18;91.59
70928;SHT31;58587;53.034;18.576;2024-03-22T07:44:20;7.16;91.20
70928;SHT31;58587;53.034;18.576;2024-03-22T07:46:45;7.18;91.27
70928;SHT31;58587;53.034;18.576;2024-03-22T07:49:14;7.11;91.73
70928;SHT31;58587;53.034;18.576;2024-03-22T07:51:40;7.20;91.64
70928;SHT31;58587;53.034;18.576;2024-03-22T07:54:05;7.18;91.24
70928;SHT31;58587;53.034;18.576;2024-03-22T07:56:31;7.20;91.73
70928;SHT31;58587;53.034;18.576;2024-03-22T07:58:56;7.20;91.88
70928;SHT31;58587;53.034;18.576;2024-03-22T08:01:22;7.26;92.25
70928;SHT31;58587;53.034;18.576;2024-03-22T08:03:47;7.23;91.98
70928;SHT31;58587;53.034;18.576;2024-03-22T08:06:13;7.20;91.96
70928;SHT31;58587;53.034;18.576;2024-03-22T08:08:39;7.17;92.14
70928;SHT31;58587;53.034;18.576;2024-03-22T08:11:04;7.23;92.50
70928;SHT31;58587;53.034;18.576;2024-03-22T08:13:30;7.18;91.87
70928;SHT31;58587;53.034;18.576;2024-03-22T08:15:55;7.18;91.93
70928;SHT31;58587;53.034;18.576;2024-03-22T08:18:20;7.27;92.53
70928;SHT31;58587;53.034;18.576;2024-03-22T08:20:46;7.26;91.91
70928;SHT31;58587;53.034;18.576;2024-03-22T08:23:11;7.24;92.20
70928;SHT31;58587;53.034;18.576;2024-03-22T08:25:36;7.35;92.30
70928;SHT31;58587;53.034;18.576;2024-03-22T08:28:02;7.35;91.49
70928;SHT31;58587;53.034;18.576;2024-03-22T08:30:27;7.38;91.61
70928;SHT31;58587;53.034;18.576;2024-03-22T08:32:53;7.43;91.48
70928;SHT31;58587;53.034;18.576;2024-03-22T08:35:18;7.51;91.29
70928;SHT31;58587;53.034;18.576;2024-03-22T08:37:44;7.68;91.49
70928;SHT31;58587;53.034;18.576;2024-03-22T08:40:10;7.78;91.16
70928;SHT31;58587;53.034;18.576;2024-03-22T08:42:36;7.88;90.59
70928;SHT31;58587;53.034;18.576;2024-03-22T08:45:01;8.02;90.76
70928;SHT31;58587;53.034;18.576;2024-03-22T08:47:26;8.03;89.81
70928;SHT31;58587;53.034;18.576;2024-03-22T08:49:52;8.10;90.12
70928;SHT31;58587;53.034;18.576;2024-03-22T08:52:17;8.17;90.04
70928;SHT31;58587;53.034;18.576;2024-03-22T08:54:42;8.09;89.01
70928;SHT31;58587;53.034;18.576;2024-03-22T08:57:08;8.12;89.27
70928;SHT31;58587;53.034;18.576;2024-03-22T08:59:34;8.03;88.90
70928;SHT31;58587;53.034;18.576;2024-03-22T09:02:00;8.01;89.04
70928;SHT31;58587;53.034;18.576;2024-03-22T09:04:25;8.10;89.64
70928;SHT31;58587;53.034;18.576;2024-03-22T09:06:51;8.21;89.93
70928;SHT31;58587;53.034;18.576;2024-03-22T09:09:16;8.23;89.46
70928;SHT31;58587;53.034;18.576;2024-03-22T09:11:42;8.39;89.05
70928;SHT31;58587;53.034;18.576;2024-03-22T09:14:07;8.53;89.33
70928;SHT31;58587;53.034;18.576;2024-03-22T09:16:33;8.53;88.29
70928;SHT31;58587;53.034;18.576;2024-03-22T09:18:58;8.54;87.87
70928;SHT31;58587;53.034;18.576;2024-03-22T09:21:23;8.70;88.77
70928;SHT31;58587;53.034;18.576;2024-03-22T09:23:49;8.76;87.68
70928;SHT31;58587;53.034;18.576;2024-03-22T09:26:15;8.77;87.65
70928;SHT31;58587;53.034;18.576;2024-03-22T09:28:40;8.80;86.64
70928;SHT31;58587;53.034;18.576;2024-03-22T09:31:07;9.05;87.25
70928;SHT31;58587;53.034;18.576;2024-03-22T09:33:33;9.34;86.95
70928;SHT31;58587;53.034;18.576;2024-03-22T09:35:59;9.36;85.85
70928;SHT31;58587;53.034;18.576;2024-03-22T09:38:25;9.27;85.81
70928;SHT31;58587;53.034;18.576;2024-03-22T09:40:50;9.11;85.41
70928;SHT31;58587;53.034;18.576;2024-03-22T09:43:22;9.00;85.78
70928;SHT31;58587;53.034;18.576;2024-03-22T09:45:49;8.98;85.71
70928;SHT31;58587;53.034;18.576;2024-03-22T09:48:16;8.98;85.88
70928;SHT31;58587;53.034;18.576;2024-03-22T09:50:42;8.88;85.79
70928;SHT31;58587;53.034;18.576;2024-03-22T09:53:09;8.89;85.50
70928;SHT31;58587;53.034;18.576;2024-03-22T09:55:36;8.94;85.33
70928;SHT31;58587;53.034;18.576;2024-03-22T09:58:02;9.04;85.80
70928;SHT31;58587;53.034;18.576;2024-03-22T10:00:29;9.05;85.71
70928;SHT31;58587;53.034;18.576;2024-03-22T10:02:56;9.07;84.75
70928;SHT31;58587;53.034;18.576;2024-03-22T10:05:21;9.14;85.43
70928;SHT31;58587;53.034;18.576;2024-03-22T10:07:47;9.14;85.10
70928;SHT31;58587;53.034;18.576;2024-03-22T10:10:12;9.01;85.54
70928;SHT31;58587;53.034;18.576;2024-03-22T10:12:39;9.00;85.18
70928;SHT31;58587;53.034;18.576;2024-03-22T10:15:05;9.03;85.53
70928;SHT31;58587;53.034;18.576;2024-03-22T10:17:34;9.04;84.92
70928;SHT31;58587;53.034;18.576;2024-03-22T10:19:59;9.11;85.62
70928;SHT31;58587;53.034;18.576;2024-03-22T10:22:25;9.11;84.84
70928;SHT31;58587;53.034;18.576;2024-03-22T10:24:50;9.25;85.30
70928;SHT31;58587;53.034;18.576;2024-03-22T10:27:16;9.25;84.75
70928;SHT31;58587;53.034;18.576;2024-03-22T10:29:43;9.29;85.14
70928;SHT31;58587;53.034;18.576;2024-03-22T10:32:09;9.40;84.96
70928;SHT31;58587;53.034;18.576;2024-03-22T10:34:35;9.38;83.85
70928;SHT31;58587;53.034;18.576;2024-03-22T10:37:00;9.38;84.71
70928;SHT31;58587;53.034;18.576;2024-03-22T10:39:29;9.40;85.03
70928;SHT31;58587;53.034;18.576;2024-03-22T10:41:55;9.36;84.80
70928;SHT31;58587;53.034;18.576;2024-03-22T10:44:21;9.35;85.33
70928;SHT31;58587;53.034;18.576;2024-03-22T10:46:48;9.42;84.94
70928;SHT31;58587;53.034;18.576;2024-03-22T10:49:17;9.45;84.55
70928;SHT31;58587;53.034;18.576;2024-03-22T10:51:47;9.53;84.49
70928;SHT31;58587;53.034;18.576;2024-03-22T10:54:20;9.53;84.14
70928;SHT31;58587;53.034;18.576;2024-03-22T10:56:46;9.50;82.99
70928;SHT31;58587;53.034;18.576;2024-03-22T10:59:22;9.52;83.10
70928;SHT31;58587;53.034;18.576;2024-03-22T11:01:51;9.56;83.26
70928;SHT31;58587;53.034;18.576;2024-03-22T11:04:20;9.60;82.65
70928;SHT31;58587;53.034;18.576;2024-03-22T11:06:49;9.66;81.55
70928;SHT31;58587;53.034;18.576;2024-03-22T11:09:21;9.69;81.73
70928;SHT31;58587;53.034;18.576;2024-03-22T11:11:48;9.75;81.54
70928;SHT31;58587;53.034;18.576;2024-03-22T11:14:14;9.87;81.56
70928;SHT31;58587;53.034;18.576;2024-03-22T11:16:43;9.94;81.67
70928;SHT31;58587;53.034;18.576;2024-03-22T11:19:09;9.94;81.55
70928;SHT31;58587;53.034;18.576;2024-03-22T11:21:34;10.00;81.60
70928;SHT31;58587;53.034;18.576;2024-03-22T11:24:00;10.03;81.39
70928;SHT31;58587;53.034;18.576;2024-03-22T11:26:26;9.99;80.83
70928;SHT31;58587;53.034;18.576;2024-03-22T11:28:51;9.85;80.34
70928;SHT31;58587;53.034;18.576;2024-03-22T11:31:17;9.83;80.47
70928;SHT31;58587;53.034;18.576;2024-03-22T11:33:44;9.78;80.05
70928;SHT31;58587;53.034;18.576;2024-03-22T11:36:09;9.79;80.07
70928;SHT31;58587;53.034;18.576;2024-03-22T11:38:35;9.69;80.30
70928;SHT31;58587;53.034;18.576;2024-03-22T11:41:01;9.68;80.82
70928;SHT31;58587;53.034;18.576;2024-03-22T11:43:29;9.65;81.13
70928;SHT31;58587;53.034;18.576;2024-03-22T11:45:55;9.62;81.10
70928;SHT31;58587;53.034;18.576;2024-03-22T11:48:21;9.63;81.50
70928;SHT31;58587;53.034;18.576;2024-03-22T11:50:46;9.63;81.35
70928;SHT31;58587;53.034;18.576;2024-03-22T11:53:12;9.62;81.66
70928;SHT31;58587;53.034;18.576;2024-03-22T11:55:37;9.62;81.29
70928;SHT31;58587;53.034;18.576;2024-03-22T11:58:03;9.63;81.59
70928;SHT31;58587;53.034;18.576;2024-03-22T12:00:28;9.65;82.17
70928;SHT31;58587;53.034;18.576;2024-03-22T12:02:54;9.66;82.24
70928;SHT31;58587;53.034;18.576;2024-03-22T12:05:23;9.63;82.43
70928;SHT31;58587;53.034;18.576;2024-03-22T12:07:48;9.60;82.83
70928;SHT31;58587;53.034;18.576;2024-03-22T12:10:13;9.65;82.90
70928;SHT31;58587;53.034;18.576;2024-03-22T12:12:39;9.65;83.32
70928;SHT31;58587;53.034;18.576;2024-03-22T12:15:04;9.66;83.46
70928;SHT31;58587;53.034;18.576;2024-03-22T12:17:30;9.68;83.61
70928;SHT31;58587;53.034;18.576;2024-03-22T12:19:55;9.65;82.98
70928;SHT31;58587;53.034;18.576;2024-03-22T12:22:22;9.68;83.40
70928;SHT31;58587;53.034;18.576;2024-03-22T12:24:47;9.68;83.45
70928;SHT31;58587;53.034;18.576;2024-03-22T12:27:13;9.66;84.08
70928;SHT31;58587;53.034;18.576;2024-03-22T12:29:38;9.73;84.89
70928;SHT31;58587;53.034;18.576;2024-03-22T12:32:04;9.70;85.76
70928;SHT31;58587;53.034;18.576;2024-03-22T12:34:30;9.68;86.35
70928;SHT31;58587;53.034;18.576;2024-03-22T12:36:56;9.72;86.32
70928;SHT31;58587;53.034;18.576;2024-03-22T12:39:22;9.72;86.65
70928;SHT31;58587;53.034;18.576;2024-03-22T12:41:47;9.66;86.54
70928;SHT31;58587;53.034;18.576;2024-03-22T12:44:13;9.75;85.68
70928;SHT31;58587;53.034;18.576;2024-03-22T12:46:39;9.79;86.17
70928;SHT31;58587;53.034;18.576;2024-03-22T12:49:07;9.82;86.02
70928;SHT31;58587;53.034;18.576;2024-03-22T12:51:34;9.85;85.69
70928;SHT31;58587;53.034;18.576;2024-03-22T12:54:00;9.94;86.57
70928;SHT31;58587;53.034;18.576;2024-03-22T12:56:26;9.93;84.86
70928;SHT31;58587;53.034;18.576;2024-03-22T12:58:51;9.99;85.22
70928;SHT31;58587;53.034;18.576;2024-03-22T13:01:16;9.94;84.18
70928;SHT31;58587;53.034;18.576;2024-03-22T13:03:42;9.90;83.65
70928;SHT31;58587;53.034;18.576;2024-03-22T13:06:07;9.90;83.80
70928;SHT31;58587;53.034;18.576;2024-03-22T13:08:32;9.94;83.58
70928;SHT31;58587;53.034;18.576;2024-03-22T13:10:58;10.00;83.64
70928;SHT31;58587;53.034;18.576;2024-03-22T13:13:23;9.94;84.01
70928;SHT31;58587;53.034;18.576;2024-03-22T13:15:48;10.03;83.74
70928;SHT31;58587;53.034;18.576;2024-03-22T13:18:14;10.07;84.08
70928;SHT31;58587;53.034;18.576;2024-03-22T13:20:39;10.07;83.50
70928;SHT31;58587;53.034;18.576;2024-03-22T13:23:05;10.06;82.91
70928;SHT31;58587;53.034;18.576;2024-03-22T13:25:30;10.09;83.61
70928;SHT31;58587;53.034;18.576;2024-03-22T13:27:56;10.10;83.69
70928;SHT31;58587;53.034;18.576;2024-03-22T13:30:21;10.14;83.23
70928;SHT31;58587;53.034;18.576;2024-03-22T13:32:47;10.18;83.35
70928;SHT31;58587;53.034;18.576;2024-03-22T13:35:12;10.20;83.33
70928;SHT31;58587;53.034;18.576;2024-03-22T13:37:39;10.27;83.31
70928;SHT31;58587;53.034;18.576;2024-03-22T13:40:04;10.31;83.40
70928;SHT31;58587;53.034;18.576;2024-03-22T13:42:30;10.34;82.96
70928;SHT31;58587;53.034;18.576;2024-03-22T13:44:55;10.44;83.16
70928;SHT31;58587;53.034;18.576;2024-03-22T13:47:22;10.47;83.22
70928;SHT31;58587;53.034;18.576;2024-03-22T13:49:47;10.51;83.32
70928;SHT31;58587;53.034;18.576;2024-03-22T13:52:13;10.50;82.57
70928;SHT31;58587;53.034;18.576;2024-03-22T13:54:38;10.54;83.10
70928;SHT31;58587;53.034;18.576;2024-03-22T13:57:04;10.48;82.09
70928;SHT31;58587;53.034;18.576;2024-03-22T13:59:29;10.51;82.16
70928;SHT31;58587;53.034;18.576;2024-03-22T14:01:55;10.55;82.58
70928;SHT31;58587;53.034;18.576;2024-03-22T14:04:24;10.58;83.17
70928;SHT31;58587;53.034;18.576;2024-03-22T14:06:51;10.55;82.06
70928;SHT31;58587;53.034;18.576;2024-03-22T14:09:17;10.58;82.16
70928;SHT31;58587;53.034;18.576;2024-03-22T14:11:42;10.61;82.38
70928;SHT31;58587;53.034;18.576;2024-03-22T14:14:09;10.63;82.35
70928;SHT31;58587;53.034;18.576;2024-03-22T14:16:37;10.68;81.85
70928;SHT31;58587;53.034;18.576;2024-03-22T14:19:02;10.69;81.80
70928;SHT31;58587;53.034;18.576;2024-03-22T14:21:28;10.72;82.19
70928;SHT31;58587;53.034;18.576;2024-03-22T14:23:54;10.72;81.54
70928;SHT31;58587;53.034;18.576;2024-03-22T14:26:20;10.71;81.77
70928;SHT31;58587;53.034;18.576;2024-03-22T14:28:46;10.78;81.53
70928;SHT31;58587;53.034;18.576;2024-03-22T14:31:12;10.78;81.04
70928;SHT31;58587;53.034;18.576;2024-03-22T14:33:39;10.76;81.14
70928;SHT31;58587;53.034;18.576;2024-03-22T14:36:05;10.78;80.87
70928;SHT31;58587;53.034;18.576;2024-03-22T14:38:33;10.72;81.06
70928;SHT31;58587;53.034;18.576;2024-03-22T14:40:58;10.74;81.05
70928;SHT31;58587;53.034;18.576;2024-03-22T14:43:25;10.74;80.95
70928;SHT31;58587;53.034;18.576;2024-03-22T14:45:51;10.72;80.69
70928;SHT31;58587;53.034;18.576;2024-03-22T14:48:19;10.67;80.78
70928;SHT31;58587;53.034;18.576;2024-03-22T14:50:45;10.63;80.78
70928;SHT31;58587;53.034;18.576;2024-03-22T14:53:10;10.65;81.32
70928;SHT31;58587;53.034;18.576;2024-03-22T14:55:37;10.65;80.99
70928;SHT31;58587;53.034;18.576;2024-03-22T14:58:03;10.64;80.41
70928;SHT31;58587;53.034;18.576;2024-03-22T15:00:28;10.67;80.59
70928;SHT31;58587;53.034;18.576;2024-03-22T15:02:54;10.67;80.74
70928;SHT31;58587;53.034;18.576;2024-03-22T15:05:19;10.68;80.94
70928;SHT31;58587;53.034;18.576;2024-03-22T15:07:45;10.67;80.80
70928;SHT31;58587;53.034;18.576;2024-03-22T15:10:10;10.67;80.61
70928;SHT31;58587;53.034;18.576;2024-03-22T15:12:35;10.67;80.89
70928;SHT31;58587;53.034;18.576;2024-03-22T15:15:01;10.67;81.37
70928;SHT31;58587;53.034;18.576;2024-03-22T15:17:26;10.67;81.01